Time;durP1;ratioP1;P1;durP2;ratioP2;P2;SDS_P1;SDS_P2;PMS_P1;PMS_P2;Temp;Humidity;BMP_temperature;BMP_pressure;BME280_temperature;BME280_humidity;BME280_pressure;Samples;Min_cycle;Max_cycle;Signal;HPM_P1;HPM_P2
2022/10/27 00:00:59;;;;;;;15.23;11.57;;;11.50;99.90;;;;;;4783524;30;20990;-75
2022/10/27 00:03:26;;;;;;;18.65;11.27;;;11.50;99.90;;;;;;4785015;30;20057;-74
2022/10/27 00:05:53;;;;;;;19.17;12.25;;;11.50;99.90;;;;;;4786444;30;20582;-74
2022/10/27 00:08:22;;;;;;;16.83;11.52;;;11.50;99.90;;;;;;4784677;30;20082;-74
2022/10/27 00:10:59;;;;;;;15.27;11.15;;;11.50;99.90;;;;;;4787797;30;20055;-74
2022/10/27 00:13:26;;;;;;;17.45;12.05;;;11.50;99.90;;;;;;4787672;30;20067;-73
2022/10/27 00:15:57;;;;;;;18.25;12.05;;;11.50;99.90;;;;;;4787231;30;20059;-73
2022/10/27 00:18:25;;;;;;;23.02;13.30;;;11.50;99.90;;;;;;4784474;29;20157;-73
2022/10/27 00:21:00;;;;;;;28.02;13.75;;;11.50;99.90;;;;;;4782293;29;20051;-73
2022/10/27 00:23:28;;;;;;;36.08;14.52;;;11.40;99.90;;;;;;4785611;30;20524;-73
2022/10/27 00:25:57;;;;;;;22.52;13.77;;;11.40;99.90;;;;;;4785573;30;20055;-74
2022/10/27 00:28:25;;;;;;;23.15;14.55;;;11.40;99.90;;;;;;4784528;29;20062;-74
2022/10/27 00:30:58;;;;;;;17.40;12.38;;;11.40;99.90;;;;;;4787025;29;20114;-74
2022/10/27 00:33:25;;;;;;;29.45;13.68;;;11.40;99.90;;;;;;4785830;30;20539;-73
2022/10/27 00:35:53;;;;;;;21.92;14.63;;;11.30;99.90;;;;;;4786191;30;20059;-73
2022/10/27 00:38:21;;;;;;;20.02;12.82;;;11.30;99.90;;;;;;4784830;29;20112;-74
2022/10/27 00:40:49;;;;;;;23.55;13.40;;;11.30;99.90;;;;;;4787111;30;20051;-73
2022/10/27 00:43:28;;;;;;;22.63;14.40;;;11.40;99.90;;;;;;4786500;30;20428;-73
2022/10/27 00:45:59;;;;;;;19.63;12.82;;;11.30;99.90;;;;;;4771463;30;20055;-74
2022/10/27 00:48:27;;;;;;;19.98;12.38;;;11.40;99.90;;;;;;4785728;30;20147;-72
2022/10/27 00:50:54;;;;;;;17.70;12.85;;;11.40;99.90;;;;;;4787739;29;20051;-74
2022/10/27 00:53:21;;;;;;;13.25;10.70;;;11.40;99.90;;;;;;4786087;29;20063;-73
2022/10/27 00:55:49;;;;;;;15.65;10.25;;;11.50;99.90;;;;;;4799264;29;20047;-73
2022/10/27 00:58:19;;;;;;;19.70;10.35;;;11.50;99.90;;;;;;4783897;30;20055;-73
2022/10/27 01:00:48;;;;;;;12.40;8.57;;;11.50;99.90;;;;;;4785106;30;20066;-72
2022/10/27 01:03:18;;;;;;;8.07;7.28;;;11.40;99.90;;;;;;4770765;30;20143;-74
2022/10/27 01:05:46;;;;;;;10.75;7.80;;;11.50;99.90;;;;;;4784414;29;20542;-74
2022/10/27 01:08:14;;;;;;;6.03;5.43;;;11.40;99.90;;;;;;4785235;30;20511;-74
2022/10/27 01:10:41;;;;;;;6.45;5.68;;;11.40;99.90;;;;;;4784729;29;20470;-74
2022/10/27 01:13:08;;;;;;;9.32;6.03;;;11.50;99.90;;;;;;4786623;29;20056;-74
2022/10/27 01:15:43;;;;;;;5.97;5.47;;;11.50;99.90;;;;;;4794112;29;20093;-74
2022/10/27 01:18:19;;;;;;;8.95;5.93;;;11.40;99.90;;;;;;4796752;29;20509;-74
2022/10/27 01:21:19;;;;;;;7.57;5.97;;;11.40;99.90;;;;;;4785021;30;20528;-74
2022/10/27 01:24:04;;;;;;;6.15;5.60;;;11.40;99.90;;;;;;4740053;30;20059;-73
2022/10/27 01:26:45;;;;;;;5.40;4.90;;;11.30;99.90;;;;;;4799724;29;20089;-73
2022/10/27 01:29:38;;;;;;;7.03;6.07;;;11.30;99.90;;;;;;4783650;30;20059;-73
2022/10/27 01:32:16;;;;;;;7.95;5.72;;;11.40;99.90;;;;;;4783822;30;20059;-73
2022/10/27 01:34:48;;;;;;;7.93;6.28;;;11.30;99.90;;;;;;4785265;29;20154;-73
2022/10/27 01:37:21;;;;;;;7.68;6.15;;;11.30;99.90;;;;;;4784456;30;20399;-73
2022/10/27 01:39:54;;;;;;;6.93;6.32;;;11.30;99.90;;;;;;4784338;29;20486;-73
2022/10/27 01:42:28;;;;;;;5.63;5.13;;;11.30;99.90;;;;;;4796398;29;20051;-73
2022/10/27 01:44:58;;;;;;;6.07;5.47;;;11.30;99.90;;;;;;4786274;30;20456;-73
2022/10/27 01:47:28;;;;;;;5.40;4.90;;;11.30;99.90;;;;;;4783712;30;20151;-73
2022/10/27 01:49:55;;;;;;;6.32;5.72;;;11.30;99.90;;;;;;4800204;29;20059;-73
2022/10/27 01:52:39;;;;;;;6.18;5.57;;;11.40;99.90;;;;;;4783221;30;20463;-74
2022/10/27 01:55:09;;;;;;;6.85;5.28;;;11.40;99.90;;;;;;4782525;29;20527;-74
2022/10/27 01:57:46;;;;;;;6.20;4.65;;;11.40;99.90;;;;;;4799196;29;20410;-73
2022/10/27 02:00:14;;;;;;;5.60;5.00;;;11.40;99.90;;;;;;4797997;29;20051;-73
2022/10/27 02:02:48;;;;;;;5.25;4.85;;;11.40;99.90;;;;;;4784322;30;20051;-73
2022/10/27 02:05:21;;;;;;;6.32;5.60;;;11.40;99.90;;;;;;4783223;30;20087;-73
2022/10/27 02:07:56;;;;;;;5.97;5.45;;;11.30;99.90;;;;;;4785648;30;20146;-74
2022/10/27 02:10:27;;;;;;;6.88;6.18;;;11.30;99.90;;;;;;4782489;30;20096;-73
2022/10/27 02:12:56;;;;;;;7.68;5.53;;;11.30;99.90;;;;;;4797911;29;20472;-73
2022/10/27 02:15:46;;;;;;;6.45;5.82;;;11.20;99.90;;;;;;4784688;30;20473;-74
2022/10/27 02:18:18;;;;;;;8.27;5.55;;;11.20;99.90;;;;;;4765825;30;20086;-74
2022/10/27 02:20:50;;;;;;;6.65;5.10;;;11.30;99.90;;;;;;4782265;30;20150;-74
2022/10/27 02:23:19;;;;;;;6.00;4.97;;;11.20;99.90;;;;;;4784359;30;20047;-75
2022/10/27 02:25:52;;;;;;;7.07;6.07;;;11.20;99.90;;;;;;4785087;29;20138;-74
2022/10/27 02:28:22;;;;;;;5.28;4.78;;;11.20;99.90;;;;;;4782949;30;20051;-74
2022/10/27 02:30:50;;;;;;;8.35;4.63;;;11.10;99.90;;;;;;4798485;29;20134;-74
2022/10/27 02:33:25;;;;;;;6.95;5.82;;;11.10;99.90;;;;;;4784698;30;20055;-75
2022/10/27 02:35:53;;;;;;;9.82;6.13;;;11.10;99.90;;;;;;4785323;29;20083;-74
2022/10/27 02:38:21;;;;;;;5.55;4.68;;;11.10;99.90;;;;;;4783251;30;20078;-73
2022/10/27 02:40:48;;;;;;;7.43;5.13;;;11.10;99.90;;;;;;4783181;29;20047;-74
2022/10/27 02:43:16;;;;;;;6.50;5.13;;;11.10;99.90;;;;;;4784843;30;20055;-74
2022/10/27 02:45:43;;;;;;;8.18;4.78;;;11.10;99.90;;;;;;4785945;29;20104;-74
2022/10/27 02:48:10;;;;;;;7.20;4.53;;;11.00;99.90;;;;;;4780219;30;20055;-74
2022/10/27 02:50:38;;;;;;;9.13;4.90;;;11.00;99.90;;;;;;4782102;30;20048;-74
2022/10/27 02:53:05;;;;;;;9.07;4.85;;;11.10;99.90;;;;;;4785026;29;20055;-74
2022/10/27 02:55:32;;;;;;;9.45;4.95;;;11.10;99.90;;;;;;4767498;30;20058;-74
2022/10/27 02:58:00;;;;;;;7.88;4.65;;;11.10;99.90;;;;;;4783803;30;20198;-73
2022/10/27 03:00:27;;;;;;;9.25;4.95;;;11.10;99.90;;;;;;4782218;30;20054;-73
2022/10/27 03:02:54;;;;;;;8.60;5.25;;;11.10;99.90;;;;;;4783994;29;20062;-73
2022/10/27 03:05:21;;;;;;;10.20;5.50;;;11.10;99.90;;;;;;4783542;29;20063;-73
2022/10/27 03:07:50;;;;;;;12.43;5.30;;;11.10;99.90;;;;;;4786128;29;20523;-75
2022/10/27 03:10:17;;;;;;;5.18;4.68;;;11.00;99.90;;;;;;4767743;30;20066;-73
2022/10/27 03:12:46;;;;;;;8.38;5.40;;;11.00;99.90;;;;;;4785023;30;20304;-73
2022/10/27 03:15:13;;;;;;;7.18;4.03;;;11.00;99.90;;;;;;4783769;29;20043;-74
2022/10/27 03:17:44;;;;;;;7.93;4.60;;;11.00;99.90;;;;;;4784050;29;20059;-75
2022/10/27 03:20:12;;;;;;;7.03;4.15;;;10.90;99.90;;;;;;4792767;29;20051;-73
2022/10/27 03:22:39;;;;;;;7.90;4.68;;;11.00;99.90;;;;;;4768709;30;20061;-73
2022/10/27 03:25:10;;;;;;;5.72;4.22;;;11.00;99.90;;;;;;4796330;29;20085;-74
2022/10/27 03:27:39;;;;;;;9.68;4.72;;;10.90;99.90;;;;;;4784907;30;20147;-75
2022/10/27 03:30:07;;;;;;;7.90;4.63;;;10.90;99.90;;;;;;4785394;29;20083;-74
2022/10/27 03:32:35;;;;;;;7.07;4.93;;;11.00;99.90;;;;;;4783640;30;20145;-74
2022/10/27 03:35:02;;;;;;;11.38;5.10;;;11.00;99.90;;;;;;4782047;30;20055;-73
2022/10/27 03:37:30;;;;;;;16.27;8.60;;;11.00;99.90;;;;;;4782765;30;20087;-74
2022/10/27 03:39:57;;;;;;;10.95;6.18;;;11.00;99.90;;;;;;4798401;29;20051;-74
2022/10/27 03:42:26;;;;;;;10.15;5.78;;;11.00;99.90;;;;;;4781851;30;20576;-75
2022/10/27 03:44:53;;;;;;;12.63;4.97;;;11.00;99.90;;;;;;4783637;30;20552;-74
2022/10/27 03:47:20;;;;;;;11.18;5.28;;;11.00;99.90;;;;;;4783262;30;20066;-74
2022/10/27 03:49:47;;;;;;;9.50;5.47;;;10.90;99.90;;;;;;4783422;30;20162;-75
2022/10/27 03:52:14;;;;;;;14.00;4.72;;;10.90;99.90;;;;;;4783443;29;20059;-75
2022/10/27 03:54:42;;;;;;;16.55;6.15;;;11.00;99.90;;;;;;4780492;29;20509;-74
2022/10/27 03:57:11;;;;;;;18.40;5.28;;;10.90;99.90;;;;;;4780327;30;20063;-74
2022/10/27 03:59:40;;;;;;;8.10;5.05;;;11.00;99.90;;;;;;4781293;30;20051;-73
2022/10/27 04:02:07;;;;;;;21.27;5.78;;;11.00;99.90;;;;;;4764686;30;20635;-74
2022/10/27 04:04:35;;;;;;;17.45;5.63;;;10.90;99.90;;;;;;4769645;30;20413;-73
2022/10/27 04:07:02;;;;;;;8.57;5.70;;;11.00;99.90;;;;;;4769257;30;20047;-75
2022/10/27 04:09:30;;;;;;;15.23;6.53;;;11.00;99.90;;;;;;4786333;30;20047;-75
2022/10/27 04:11:57;;;;;;;15.98;6.38;;;11.00;99.90;;;;;;4780934;29;20138;-76
2022/10/27 04:14:24;;;;;;;22.58;5.95;;;11.00;99.90;;;;;;4787435;29;20051;-75
2022/10/27 04:16:53;;;;;;;8.98;5.50;;;11.10;99.90;;;;;;4786772;29;20055;-75
2022/10/27 04:19:21;;;;;;;17.73;6.50;;;11.10;99.90;;;;;;4784483;30;20100;-73
2022/10/27 04:21:48;;;;;;;16.38;6.63;;;11.10;99.90;;;;;;4771438;29;20055;-74
2022/10/27 04:24:24;;;;;;;15.00;6.40;;;11.10;99.90;;;;;;4769580;30;20480;-75
2022/10/27 04:26:51;;;;;;;31.02;7.68;;;11.10;99.90;;;;;;4769494;30;20060;-75
2022/10/27 04:29:18;;;;;;;27.58;6.57;;;11.20;99.90;;;;;;4774325;30;20067;-74
2022/10/27 04:31:45;;;;;;;24.95;7.38;;;11.20;99.90;;;;;;4786000;30;20051;-75
2022/10/27 04:34:14;;;;;;;24.38;6.95;;;11.10;99.90;;;;;;4785423;30;20597;-73
2022/10/27 04:36:41;;;;;;;16.63;6.85;;;11.10;99.90;;;;;;4788471;30;20059;-76
2022/10/27 04:39:12;;;;;;;29.75;8.13;;;11.10;99.90;;;;;;4780311;30;20409;-76
2022/10/27 04:41:40;;;;;;;26.90;6.43;;;11.20;99.90;;;;;;4767547;30;20055;-77
2022/10/27 04:44:07;;;;;;;27.25;6.95;;;11.20;99.90;;;;;;4775977;30;20117;-76
2022/10/27 04:46:36;;;;;;;48.70;5.70;;;11.20;99.90;;;;;;4801613;29;20074;-75
2022/10/27 04:49:03;;;;;;;34.65;7.32;;;11.20;99.90;;;;;;4798352;29;20062;-76
2022/10/27 04:51:32;;;;;;;32.08;6.88;;;11.20;99.90;;;;;;4786662;29;20079;-76
2022/10/27 04:53:59;;;;;;;19.83;6.10;;;11.20;99.90;;;;;;4788080;30;20063;-73
2022/10/27 04:56:27;;;;;;;19.38;4.95;;;11.20;99.90;;;;;;4768693;30;20047;-74
2022/10/27 04:58:59;;;;;;;21.95;6.18;;;11.20;99.90;;;;;;4777963;30;20588;-76
2022/10/27 05:01:26;;;;;;;23.13;6.80;;;11.10;99.90;;;;;;4775058;29;20068;-77
2022/10/27 05:03:54;;;;;;;18.27;6.43;;;11.20;99.90;;;;;;4773911;30;20078;-77
2022/10/27 05:06:21;;;;;;;14.35;6.22;;;11.10;99.90;;;;;;4775153;30;20059;-80
2022/10/27 05:08:52;;;;;;;9.45;5.20;;;11.20;99.90;;;;;;4776108;30;20616;-77
2022/10/27 05:11:19;;;;;;;10.20;4.85;;;11.10;99.90;;;;;;4781248;30;20178;-76
2022/10/27 05:13:50;;;;;;;7.78;4.25;;;11.10;99.90;;;;;;4787448;29;20059;-82
2022/10/27 05:16:18;;;;;;;13.43;4.70;;;11.10;99.90;;;;;;4780740;30;20055;-78
2022/10/27 05:18:46;;;;;;;21.25;5.55;;;11.10;99.90;;;;;;4786286;29;20051;-80
2022/10/27 05:21:14;;;;;;;20.45;6.03;;;11.10;99.90;;;;;;4780006;29;20054;-78
2022/10/27 05:23:41;;;;;;;25.83;6.55;;;11.00;99.90;;;;;;4779284;30;20057;-77
2022/10/27 05:26:10;;;;;;;19.42;6.93;;;11.00;99.90;;;;;;4779322;29;20146;-76
2022/10/27 05:28:37;;;;;;;15.13;6.50;;;11.00;99.90;;;;;;4788878;29;20464;-77
2022/10/27 05:31:05;;;;;;;23.27;5.38;;;11.00;99.90;;;;;;4774511;30;20401;-78
2022/10/27 05:33:32;;;;;;;28.80;6.93;;;11.00;99.90;;;;;;4777653;30;20268;-78
2022/10/27 05:36:00;;;;;;;18.75;5.18;;;11.00;99.90;;;;;;4777111;29;20087;-78
2022/10/27 05:38:27;;;;;;;49.65;6.63;;;11.00;99.90;;;;;;4773627;30;20308;-77
2022/10/27 05:40:59;;;;;;;26.05;6.53;;;11.00;99.90;;;;;;4778612;29;20189;-77
2022/10/27 05:43:27;;;;;;;16.77;6.78;;;11.00;99.90;;;;;;4774624;30;20533;-77
2022/10/27 05:45:55;;;;;;;19.40;7.72;;;11.10;99.90;;;;;;4782606;29;20069;-78
2022/10/27 05:48:22;;;;;;;16.23;7.53;;;11.10;99.90;;;;;;4777442;30;20600;-77
2022/10/27 05:50:53;;;;;;;17.20;8.90;;;11.10;99.90;;;;;;4780650;30;20239;-78
2022/10/27 05:53:20;;;;;;;18.10;9.85;;;11.10;99.90;;;;;;4779501;30;20051;-77
2022/10/27 05:55:57;;;;;;;21.85;9.52;;;11.10;99.90;;;;;;4788067;29;20047;-79
2022/10/27 05:58:24;;;;;;;17.17;8.90;;;11.10;99.90;;;;;;4778815;30;20157;-77
2022/10/27 06:00:52;;;;;;;16.13;8.98;;;11.20;99.90;;;;;;4783603;30;20051;-77
2022/10/27 06:03:22;;;;;;;17.17;9.35;;;11.20;99.90;;;;;;4779447;29;20055;-78
2022/10/27 06:05:53;;;;;;;16.95;9.52;;;11.10;99.90;;;;;;4775128;30;20101;-79
2022/10/27 06:08:25;;;;;;;15.50;8.57;;;11.20;99.90;;;;;;4775064;30;20113;-76
2022/10/27 06:10:52;;;;;;;15.23;8.88;;;11.20;99.90;;;;;;4777004;30;20536;-77
2022/10/27 06:13:19;;;;;;;17.73;10.02;;;11.20;99.90;;;;;;4776332;30;20078;-78
2022/10/27 06:15:50;;;;;;;13.70;9.15;;;11.10;99.90;;;;;;4774760;30;20052;-78
2022/10/27 06:18:18;;;;;;;15.63;9.30;;;11.20;99.90;;;;;;4783933;29;20070;-78
2022/10/27 06:20:46;;;;;;;17.88;9.40;;;11.20;99.90;;;;;;4789911;29;20051;-77
2022/10/27 06:23:13;;;;;;;15.00;8.68;;;11.10;99.90;;;;;;4793434;29;20627;-77
2022/10/27 06:25:41;;;;;;;13.88;9.05;;;11.20;99.90;;;;;;4779189;29;20400;-77
2022/10/27 06:28:08;;;;;;;12.30;8.30;;;11.20;99.90;;;;;;4775243;29;20063;-76
2022/10/27 06:30:35;;;;;;;11.18;7.78;;;11.20;99.90;;;;;;4779425;30;20101;-77
2022/10/27 06:33:03;;;;;;;11.73;8.27;;;11.20;99.90;;;;;;4775673;30;20058;-76
2022/10/27 06:35:31;;;;;;;15.25;8.80;;;11.20;99.90;;;;;;4771618;30;20059;-76
2022/10/27 06:37:59;;;;;;;11.52;7.95;;;11.20;99.90;;;;;;4775125;30;20104;-77
2022/10/27 06:40:26;;;;;;;9.70;6.93;;;11.20;99.90;;;;;;4776122;30;20131;-80
2022/10/27 06:42:53;;;;;;;8.15;5.85;;;11.30;99.90;;;;;;4776995;30;20070;-77
2022/10/27 06:45:21;;;;;;;10.13;6.60;;;11.30;99.90;;;;;;4775405;30;20057;-79
2022/10/27 06:47:57;;;;;;;13.02;7.68;;;11.20;99.90;;;;;;4789572;29;20058;-80
2022/10/27 06:50:24;;;;;;;9.68;7.10;;;11.20;99.90;;;;;;4775806;30;20138;-79
2022/10/27 06:52:53;;;;;;;13.00;8.77;;;11.20;99.90;;;;;;4796970;29;20052;-79
2022/10/27 06:55:20;;;;;;;10.95;7.22;;;11.30;99.90;;;;;;4783918;29;20055;-77
2022/10/27 06:57:48;;;;;;;11.05;7.15;;;11.30;99.90;;;;;;4785342;29;20053;-77
2022/10/27 07:00:15;;;;;;;13.43;7.32;;;11.30;99.90;;;;;;4789554;29;20059;-77
2022/10/27 07:02:43;;;;;;;12.82;7.20;;;11.40;99.90;;;;;;4785413;29;20054;-78
2022/10/27 07:05:10;;;;;;;8.75;6.13;;;11.40;99.90;;;;;;4781724;29;20054;-78
2022/10/27 07:07:38;;;;;;;11.40;7.47;;;11.40;99.90;;;;;;4794895;29;20050;-78
2022/10/27 07:10:16;;;;;;;14.75;7.78;;;11.40;99.90;;;;;;4793780;29;20529;-81
2022/10/27 07:12:52;;;;;;;10.35;6.78;;;11.50;99.90;;;;;;4800614;29;20182;-80
2022/10/27 07:15:19;;;;;;;14.30;7.35;;;11.50;99.90;;;;;;4787379;29;20455;-78
2022/10/27 07:17:55;;;;;;;12.13;7.20;;;11.60;99.90;;;;;;4787708;29;20047;-79
2022/10/27 07:20:22;;;;;;;11.35;7.82;;;11.60;99.90;;;;;;4792754;29;20057;-79
2022/10/27 07:22:59;;;;;;;15.35;7.68;;;11.70;99.90;;;;;;4799384;29;20050;-77
2022/10/27 07:25:30;;;;;;;10.45;7.47;;;11.60;99.90;;;;;;4794291;29;20078;-79
2022/10/27 07:27:58;;;;;;;11.38;7.10;;;11.60;99.90;;;;;;4788217;29;20075;-78
2022/10/27 07:30:30;;;;;;;11.27;7.80;;;11.60;99.90;;;;;;4788493;29;20605;-81
2022/10/27 07:32:58;;;;;;;10.20;7.65;;;11.60;99.90;;;;;;4793406;29;20067;-80
2022/10/27 07:35:26;;;;;;;10.48;8.07;;;11.60;99.90;;;;;;4790010;29;20535;-79
2022/10/27 07:37:54;;;;;;;11.18;7.68;;;11.70;99.90;;;;;;4785048;29;20059;-80
2022/10/27 07:40:23;;;;;;;13.07;8.13;;;11.80;99.90;;;;;;4785631;29;20499;-79
2022/10/27 07:42:55;;;;;;;10.30;6.70;;;11.90;99.90;;;;;;4786503;29;20047;-79
2022/10/27 07:45:29;;;;;;;6.75;5.57;;;11.90;99.90;;;;;;4782236;29;20898;-80
2022/10/27 07:47:57;;;;;;;8.77;6.65;;;12.00;99.90;;;;;;4785602;29;20750;-79
2022/10/27 07:50:28;;;;;;;6.88;6.15;;;12.10;99.90;;;;;;4789227;29;20059;-79
2022/10/27 07:52:56;;;;;;;9.35;7.25;;;12.30;99.90;;;;;;4785338;29;20575;-79
2022/10/27 07:55:25;;;;;;;14.52;8.15;;;12.40;99.90;;;;;;4798909;29;20051;-79
2022/10/27 07:58:00;;;;;;;8.30;6.03;;;12.40;99.90;;;;;;4800243;29;20137;-80
2022/10/27 08:00:28;;;;;;;12.10;7.00;;;12.50;99.90;;;;;;4783806;29;20503;-81
2022/10/27 08:02:58;;;;;;;9.52;6.50;;;12.50;99.90;;;;;;4782427;29;20066;-80
2022/10/27 08:05:26;;;;;;;5.65;4.95;;;12.40;99.90;;;;;;4809252;29;20551;-78
2022/10/27 08:07:57;;;;;;;8.00;5.97;;;12.40;99.90;;;;;;4786384;29;20062;-79
2022/10/27 08:10:25;;;;;;;10.32;6.30;;;12.30;99.90;;;;;;4785104;29;20063;-78
2022/10/27 08:12:52;;;;;;;8.02;6.18;;;12.20;99.90;;;;;;4782324;29;20043;-79
2022/10/27 08:15:21;;;;;;;8.55;6.85;;;12.30;99.90;;;;;;4783108;29;20524;-79
2022/10/27 08:17:51;;;;;;;9.07;6.50;;;12.40;99.90;;;;;;4812549;29;20046;-77
2022/10/27 08:20:19;;;;;;;8.75;7.22;;;12.50;99.90;;;;;;4784958;29;20417;-77
2022/10/27 08:22:46;;;;;;;9.32;6.80;;;12.60;99.90;;;;;;4784950;29;20054;-78
2022/10/27 08:25:14;;;;;;;7.82;6.72;;;12.60;99.90;;;;;;4820435;29;20059;-77
2022/10/27 08:27:41;;;;;;;7.32;6.57;;;12.60;99.90;;;;;;4785392;29;20055;-76
2022/10/27 08:30:09;;;;;;;5.45;4.95;;;12.80;99.90;;;;;;4786704;29;20424;-78
2022/10/27 08:32:38;;;;;;;8.18;5.90;;;12.80;99.90;;;;;;4784072;29;20476;-77
2022/10/27 08:35:06;;;;;;;7.20;5.60;;;12.80;99.90;;;;;;4783487;29;20051;-78
2022/10/27 08:37:33;;;;;;;5.28;4.75;;;12.70;99.90;;;;;;4783471;29;20575;-79
2022/10/27 08:40:00;;;;;;;6.63;5.20;;;12.60;99.90;;;;;;4781857;29;20591;-78
2022/10/27 08:42:37;;;;;;;6.25;5.20;;;12.70;99.90;;;;;;4782793;29;20050;-76
2022/10/27 08:45:11;;;;;;;7.97;5.05;;;12.90;99.90;;;;;;4787345;29;20082;-78
2022/10/27 08:47:41;;;;;;;4.70;4.20;;;13.50;99.90;;;;;;4782115;29;20054;-76
2022/10/27 08:50:14;;;;;;;5.63;4.15;;;14.50;99.90;;;;;;4781634;29;20055;-74
2022/10/27 08:52:45;;;;;;;8.43;4.28;;;15.40;99.90;;;;;;4798173;29;20433;-76
2022/10/27 08:55:22;;;;;;;6.27;3.90;;;15.60;99.90;;;;;;4811554;29;20047;-76
2022/10/27 08:57:55;;;;;;;4.93;3.60;;;15.30;99.90;;;;;;4779641;29;20420;-77
2022/10/27 09:00:22;;;;;;;;;;;14.90;99.90;;;;;;4782820;29;20530;-76
2022/10/27 09:03:05;;;;;;;3.10;2.72;;;14.60;99.90;;;;;;4784227;29;19929;-78
2022/10/27 09:05:46;;;;;;;6.72;3.30;;;14.50;99.90;;;;;;4784797;29;20483;-78
2022/10/27 09:08:23;;;;;;;3.15;2.85;;;14.30;99.90;;;;;;4782523;29;20058;-77
2022/10/27 09:10:59;;;;;;;3.30;3.00;;;14.20;99.90;;;;;;4812262;29;20933;-78
2022/10/27 09:13:40;;;;;;;3.28;2.40;;;14.10;99.90;;;;;;4784029;29;20051;-76
2022/10/27 09:16:15;;;;;;;3.15;2.75;;;14.10;99.90;;;;;;4781529;29;20063;-77
2022/10/27 09:18:46;;;;;;;3.30;2.83;;;13.80;99.90;;;;;;4809743;29;20062;-77
2022/10/27 09:21:17;;;;;;;2.55;2.35;;;13.60;99.90;;;;;;4780372;29;20513;-78
2022/10/27 09:23:49;;;;;;;4.18;2.40;;;13.70;99.90;;;;;;4781157;29;20083;-78
2022/10/27 09:26:19;;;;;;;3.38;2.97;;;13.70;99.90;;;;;;4779927;29;20093;-78
2022/10/27 09:28:50;;;;;;;3.30;2.97;;;13.70;99.90;;;;;;4781578;29;20055;-78
2022/10/27 09:31:23;;;;;;;6.78;3.08;;;13.70;99.90;;;;;;4783322;29;20051;-77
2022/10/27 09:33:57;;;;;;;4.28;3.10;;;13.70;99.90;;;;;;4783265;29;20085;-78
2022/10/27 09:36:24;;;;;;;5.13;2.33;;;13.50;99.90;;;;;;4781223;29;20146;-79
2022/10/27 09:38:51;;;;;;;4.97;2.85;;;13.40;99.90;;;;;;4781789;29;20055;-76
2022/10/27 09:41:18;;;;;;;2.85;2.53;;;13.20;99.90;;;;;;4813057;29;20051;-78
2022/10/27 09:43:46;;;;;;;3.55;2.55;;;13.20;99.90;;;;;;4781347;29;20054;-78
2022/10/27 09:46:22;;;;;;;3.08;2.83;;;13.20;99.90;;;;;;4810151;29;20058;-78
2022/10/27 09:48:54;;;;;;;4.47;3.03;;;13.20;99.90;;;;;;4783072;29;20047;-81
2022/10/27 09:51:25;;;;;;;3.28;2.72;;;13.10;99.90;;;;;;4784047;29;20493;-80
2022/10/27 09:53:53;;;;;;;2.95;2.75;;;13.10;99.90;;;;;;4807147;29;20067;-80
2022/10/27 09:56:25;;;;;;;3.55;3.20;;;13.10;99.90;;;;;;4780888;29;20127;-80
2022/10/27 09:58:57;;;;;;;8.67;6.10;;;13.10;99.90;;;;;;4808285;29;20055;-80
2022/10/27 10:01:29;;;;;;;3.03;2.47;;;13.00;99.90;;;;;;4813542;29;20301;-81
2022/10/27 10:04:04;;;;;;;4.72;2.80;;;12.90;99.90;;;;;;4783915;29;20326;-82
2022/10/27 10:06:35;;;;;;;2.47;2.28;;;12.80;99.90;;;;;;4780779;29;20051;-83
2022/10/27 10:09:23;;;;;;;3.25;2.50;;;12.80;99.90;;;;;;4789787;29;20546;-80
2022/10/27 10:11:51;;;;;;;3.85;2.60;;;12.90;99.90;;;;;;4781675;29;20502;-80
2022/10/27 10:14:23;;;;;;;2.30;2.10;;;13.00;99.90;;;;;;4781269;29;20055;-81
2022/10/27 10:16:52;;;;;;;3.95;1.73;;;13.00;99.90;;;;;;4785182;29;20142;-81
2022/10/27 10:19:23;;;;;;;2.42;1.70;;;13.00;99.90;;;;;;4786585;29;20047;-80
2022/10/27 10:21:53;;;;;;;2.78;2.08;;;12.90;99.90;;;;;;4789145;29;20081;-79
2022/10/27 10:24:23;;;;;;;1.95;1.77;;;12.80;99.90;;;;;;4782216;29;20063;-81
2022/10/27 10:26:53;;;;;;;3.28;1.83;;;12.60;99.90;;;;;;4776882;29;20410;-80
2022/10/27 10:29:29;;;;;;;1.98;1.67;;;12.50;99.90;;;;;;4786537;29;20051;-81
2022/10/27 10:32:09;;;;;;;3.45;1.75;;;12.50;99.90;;;;;;4810519;29;20617;-80
2022/10/27 10:34:38;;;;;;;2.20;2.00;;;12.50;99.90;;;;;;4780519;29;20605;-80
2022/10/27 10:37:30;;;;;;;2.53;2.33;;;12.30;99.90;;;;;;4781672;29;20080;-80
2022/10/27 10:40:25;;;;;;;2.88;1.98;;;12.20;99.90;;;;;;4780572;29;20054;-81
2022/10/27 10:43:16;;;;;;;2.53;2.33;;;12.10;99.90;;;;;;4780682;29;20106;-78
2022/10/27 10:45:49;;;;;;;1.75;1.65;;;12.10;99.90;;;;;;4779634;29;20749;-79
2022/10/27 10:48:27;;;;;;;2.28;1.65;;;12.00;99.90;;;;;;4781764;29;20070;-79
2022/10/27 10:50:56;;;;;;;4.55;2.05;;;11.90;99.90;;;;;;4779707;29;20171;-78
2022/10/27 10:53:27;;;;;;;4.22;1.90;;;11.90;99.90;;;;;;4781631;29;20352;-78
2022/10/27 10:55:58;;;;;;;3.55;2.00;;;12.00;99.90;;;;;;4780558;29;20043;-77
2022/10/27 10:58:28;;;;;;;3.70;1.67;;;12.00;99.90;;;;;;4779421;29;20086;-78
2022/10/27 11:00:57;;;;;;;2.97;1.77;;;12.00;99.90;;;;;;4781899;29;20070;-78
2022/10/27 11:03:29;;;;;;;1.27;1.17;;;11.90;99.90;;;;;;4780789;29;20467;-78
2022/10/27 11:06:01;;;;;;;2.37;1.20;;;11.90;99.90;;;;;;4764660;30;21141;-78
2022/10/27 11:08:35;;;;;;;3.17;1.55;;;11.90;99.90;;;;;;4809431;29;20420;-78
2022/10/27 11:11:04;;;;;;;5.93;1.73;;;11.80;99.90;;;;;;4780647;29;20129;-81
2022/10/27 11:13:38;;;;;;;8.00;1.80;;;11.70;99.90;;;;;;4781799;29;20059;-79
2022/10/27 11:16:09;;;;;;;2.10;1.50;;;11.70;99.90;;;;;;4784917;29;20066;-81
2022/10/27 11:18:48;;;;;;;1.33;1.10;;;11.70;99.90;;;;;;4811979;29;20107;-80
2022/10/27 11:21:33;;;;;;;1.45;1.20;;;11.70;99.90;;;;;;4784682;29;20055;-79
2022/10/27 11:24:04;;;;;;;2.63;1.30;;;11.70;99.90;;;;;;4784463;29;20587;-79
2022/10/27 11:26:35;;;;;;;3.25;1.55;;;11.60;99.90;;;;;;4782506;29;20146;-81
2022/10/27 11:29:12;;;;;;;4.45;1.58;;;11.60;99.90;;;;;;4783759;29;20055;-80
2022/10/27 11:31:49;;;;;;;2.10;1.23;;;11.60;99.90;;;;;;4783311;29;20067;-79
2022/10/27 11:34:24;;;;;;;3.40;1.40;;;11.60;99.90;;;;;;4789187;29;20122;-80
2022/10/27 11:36:57;;;;;;;2.63;1.05;;;11.60;99.90;;;;;;4785668;29;20051;-80
2022/10/27 11:39:31;;;;;;;1.25;1.10;;;11.60;99.90;;;;;;4787612;29;20078;-79
2022/10/27 11:42:10;;;;;;;1.20;1.10;;;11.60;99.90;;;;;;4789474;29;20100;-79
2022/10/27 11:44:43;;;;;;;0.98;0.95;;;11.60;99.90;;;;;;4789155;30;20047;-80
2022/10/27 11:47:18;;;;;;;1.63;1.52;;;11.60;99.90;;;;;;4813385;29;20455;-81
2022/10/27 11:49:53;;;;;;;1.55;1.25;;;11.50;99.90;;;;;;4787270;30;20552;-79
2022/10/27 11:52:29;;;;;;;1.65;1.52;;;11.40;99.90;;;;;;4788260;30;20051;-80
2022/10/27 11:54:58;;;;;;;4.78;2.05;;;11.40;99.90;;;;;;4786478;29;20055;-78
2022/10/27 11:57:37;;;;;;;3.30;1.38;;;11.30;99.90;;;;;;4769658;30;20055;-79
2022/10/27 12:00:13;;;;;;;1.90;1.40;;;11.40;99.90;;;;;;4773541;30;20142;-79
2022/10/27 12:03:00;;;;;;;2.70;1.45;;;11.40;99.90;;;;;;4789114;29;20063;-79
2022/10/27 12:05:31;;;;;;;6.93;1.73;;;11.40;99.90;;;;;;4789415;29;20046;-81
2022/10/27 12:08:16;;;;;;;1.90;1.50;;;11.40;99.90;;;;;;4787495;29;20760;-81
2022/10/27 12:10:58;;;;;;;2.22;1.38;;;11.40;99.90;;;;;;4790892;29;20091;-80
2022/10/27 12:13:34;;;;;;;2.30;2.10;;;11.40;99.90;;;;;;4788828;29;20534;-82
2022/10/27 12:16:05;;;;;;;2.25;1.58;;;11.30;99.90;;;;;;4784202;29;20078;-82
2022/10/27 12:18:42;;;;;;;2.80;1.40;;;11.30;99.90;;;;;;4788682;29;20055;-82
2022/10/27 12:21:14;;;;;;;1.58;1.48;;;11.30;99.90;;;;;;4818769;29;20058;-81
2022/10/27 12:23:50;;;;;;;1.88;1.73;;;11.20;99.90;;;;;;4787186;29;20509;-79
2022/10/27 12:26:21;;;;;;;1.50;1.38;;;11.20;99.90;;;;;;4784954;29;20059;-79
2022/10/27 12:28:50;;;;;;;3.28;1.80;;;11.10;99.90;;;;;;4784591;30;20150;-80
2022/10/27 12:31:23;;;;;;;2.58;1.70;;;11.10;99.90;;;;;;4785609;29;20054;-79
2022/10/27 12:33:53;;;;;;;;;;;11.00;99.90;;;;;;4783419;30;20396;-79
2022/10/27 12:36:28;;;;;;;1.98;1.73;;;10.90;99.90;;;;;;4786451;29;19934;-79
2022/10/27 12:39:09;;;;;;;3.05;1.60;;;10.90;99.90;;;;;;4786207;30;20059;-84
2022/10/27 12:41:46;;;;;;;3.45;1.70;;;10.80;99.90;;;;;;4784486;29;21274;-80
2022/10/27 12:44:30;;;;;;;1.77;1.60;;;10.80;99.90;;;;;;4782506;29;20151;-79
2022/10/27 12:47:24;;;;;;;1.80;1.20;;;10.80;99.90;;;;;;4798044;29;20464;-80
2022/10/27 12:50:06;;;;;;;4.50;1.65;;;10.80;99.90;;;;;;4812940;29;20089;-79
2022/10/27 12:52:38;;;;;;;2.65;1.80;;;10.70;99.90;;;;;;4783800;30;20451;-80
2022/10/27 12:55:30;;;;;;;1.98;1.48;;;10.70;99.90;;;;;;4797906;29;20058;-78
2022/10/27 12:58:02;;;;;;;3.15;1.48;;;10.70;99.90;;;;;;4781388;29;20062;-78
2022/10/27 13:00:40;;;;;;;1.97;1.17;;;10.70;99.90;;;;;;4812785;29;20367;-79
2022/10/27 13:03:37;;;;;;;4.43;1.17;;;10.60;99.90;;;;;;4770606;29;20141;-77